Time;durP1;ratioP1;P1;durP2;ratioP2;P2;SDS_P1;SDS_P2;PMS_P1;PMS_P2;Temp;Humidity;BMP_temperature;BMP_pressure;BME280_temperature;BME280_humidity;BME280_pressure;Samples;Min_cycle;Max_cycle;Signal;HPM_P1;HPM_P2
2023/05/21 00:02:22;;;;;;;28.97;19.50;;;19.10;73.50;;;;;;5066325;28;21190;-59
2023/05/21 00:04:55;;;;;;;32.17;21.00;;;19.00;73.70;;;;;;5065584;28;20457;-60
2023/05/21 00:07:32;;;;;;;27.90;19.90;;;19.00;73.70;;;;;;5064263;28;20456;-60
2023/05/21 00:10:07;;;;;;;25.80;19.13;;;18.90;73.70;;;;;;5066818;28;21086;-60
2023/05/21 00:12:46;;;;;;;24.83;18.83;;;18.90;73.70;;;;;;5056975;28;20504;-60
2023/05/21 00:15:19;;;;;;;23.23;18.50;;;18.80;73.70;;;;;;5064663;28;20461;-60
2023/05/21 00:17:47;;;;;;;28.40;19.07;;;18.80;73.70;;;;;;5067478;28;20479;-60
2023/05/21 00:20:18;;;;;;;25.30;19.43;;;18.70;73.80;;;;;;5065817;28;21184;-60
2023/05/21 00:22:57;;;;;;;34.47;23.40;;;18.70;73.80;;;;;;5065314;28;21159;-60
2023/05/21 00:25:31;;;;;;;28.23;20.53;;;18.60;73.90;;;;;;5067404;28;20460;-60
2023/05/21 00:28:13;;;;;;;33.03;22.07;;;18.60;74.10;;;;;;5067396;28;20465;-60
2023/05/21 00:30:43;;;;;;;33.60;20.57;;;18.60;74.30;;;;;;5065276;28;20478;-60
2023/05/21 00:33:13;;;;;;;26.87;19.67;;;18.60;74.30;;;;;;5063791;28;20784;-60
2023/05/21 00:35:50;;;;;;;27.10;20.37;;;18.60;74.20;;;;;;5064319;28;20532;-60
2023/05/21 00:38:26;;;;;;;29.03;21.07;;;18.60;74.20;;;;;;5065439;28;20488;-59
2023/05/21 00:40:59;;;;;;;26.10;20.90;;;18.60;74.30;;;;;;5066970;28;20470;-59
2023/05/21 00:43:31;;;;;;;23.53;18.63;;;18.60;74.30;;;;;;5065454;28;20463;-60
2023/05/21 00:46:02;;;;;;;27.27;20.37;;;18.50;74.30;;;;;;5065117;28;20479;-60
2023/05/21 00:48:42;;;;;;;30.60;20.77;;;18.50;74.30;;;;;;5064553;28;20567;-60
2023/05/21 00:51:23;;;;;;;30.20;21.20;;;18.50;74.40;;;;;;5067422;28;20571;-60
2023/05/21 00:54:04;;;;;;;26.40;19.43;;;18.50;74.50;;;;;;5070269;28;20471;-60
2023/05/21 00:56:42;;;;;;;26.50;20.70;;;18.50;74.60;;;;;;5067398;28;20822;-60
2023/05/21 00:59:21;;;;;;;35.63;24.23;;;18.50;74.60;;;;;;5066444;28;20461;-60
2023/05/21 01:02:03;;;;;;;42.37;28.17;;;18.50;74.60;;;;;;5068257;28;20470;-60
2023/05/21 01:04:35;;;;;;;41.10;26.53;;;18.50;74.60;;;;;;5064875;28;20853;-60
2023/05/21 01:07:08;;;;;;;36.23;24.40;;;18.50;74.60;;;;;;5068591;28;20480;-60
2023/05/21 01:09:44;;;;;;;28.83;20.67;;;18.40;74.60;;;;;;5068694;28;20459;-60
2023/05/21 01:12:22;;;;;;;30.13;20.77;;;18.40;74.70;;;;;;5064892;28;20500;-60
2023/05/21 01:14:56;;;;;;;26.57;19.30;;;18.40;74.70;;;;;;5067788;28;20473;-60
2023/05/21 01:17:30;;;;;;;25.53;19.17;;;18.40;74.60;;;;;;5068034;28;20483;-60
2023/05/21 01:20:08;;;;;;;27.30;20.83;;;18.40;74.60;;;;;;5066832;28;20504;-60
2023/05/21 01:22:52;;;;;;;26.47;20.60;;;18.30;74.60;;;;;;5068207;28;20466;-60
2023/05/21 01:25:29;;;;;;;29.87;21.03;;;18.30;74.80;;;;;;5069236;28;20481;-60
2023/05/21 01:28:01;;;;;;;27.70;20.70;;;18.30;74.80;;;;;;5066856;28;20527;-59
2023/05/21 01:30:33;;;;;;;28.40;20.80;;;18.20;74.90;;;;;;5064614;28;20470;-60
2023/05/21 01:33:12;;;;;;;26.87;19.33;;;18.20;74.90;;;;;;5068777;28;20464;-60
2023/05/21 01:35:50;;;;;;;28.73;19.83;;;18.20;75.00;;;;;;5066693;28;20861;-60
2023/05/21 01:39:01;;;;;;;28.33;21.13;;;18.20;75.00;;;;;;5067551;28;20478;-60
2023/05/21 01:41:44;;;;;;;26.27;20.03;;;18.20;75.10;;;;;;5064897;28;20546;-60
2023/05/21 01:44:19;;;;;;;28.10;20.17;;;18.20;75.10;;;;;;5067592;28;20495;-60
2023/05/21 01:46:55;;;;;;;28.20;20.77;;;18.20;75.20;;;;;;5066729;28;20465;-60
2023/05/21 01:49:37;;;;;;;35.30;24.03;;;18.20;75.20;;;;;;5065802;28;20452;-59
2023/05/21 01:52:09;;;;;;;44.37;24.57;;;18.10;75.10;;;;;;5068896;28;20454;-60
2023/05/21 01:54:48;;;;;;;41.10;24.90;;;18.10;75.20;;;;;;5068120;28;20581;-60
2023/05/21 01:57:23;;;;;;;44.70;28.83;;;18.10;75.20;;;;;;5059886;28;20688;-60
2023/05/21 02:00:00;;;;;;;48.03;29.27;;;18.10;75.30;;;;;;5058569;28;20558;-59
2023/05/21 02:02:33;;;;;;;51.13;30.53;;;18.10;75.30;;;;;;5063298;28;20481;-60
2023/05/21 02:05:13;;;;;;;48.80;28.23;;;18.10;75.30;;;;;;5063459;28;20938;-60
2023/05/21 02:07:45;;;;;;;48.07;29.43;;;18.10;75.30;;;;;;5064591;28;20474;-60
2023/05/21 02:10:23;;;;;;;55.73;31.07;;;18.10;75.30;;;;;;5076660;28;20468;-60
2023/05/21 02:12:58;;;;;;;48.13;28.90;;;18.10;75.30;;;;;;5062333;28;20459;-60
2023/05/21 02:15:33;;;;;;;36.70;24.27;;;18.10;75.30;;;;;;5065422;28;20465;-60
2023/05/21 02:18:08;;;;;;;29.87;21.80;;;18.10;75.40;;;;;;5068908;28;20480;-60
2023/05/21 02:20:43;;;;;;;29.03;20.83;;;18.00;75.30;;;;;;5069200;28;21094;-60
2023/05/21 02:23:22;;;;;;;29.13;20.40;;;18.00;75.30;;;;;;5078362;28;20495;-60
2023/05/21 02:25:57;;;;;;;28.80;19.80;;;18.00;75.40;;;;;;5081009;28;20470;-60
2023/05/21 02:28:37;;;;;;;28.97;20.43;;;17.90;75.40;;;;;;5067553;28;20454;-60
2023/05/21 02:31:14;;;;;;;30.00;21.70;;;17.90;75.40;;;;;;5067523;28;20481;-60
2023/05/21 02:33:48;;;;;;;28.97;21.67;;;17.90;75.50;;;;;;5070205;28;20497;-60
2023/05/21 02:36:24;;;;;;;29.70;20.00;;;17.90;75.60;;;;;;5067009;28;21007;-59
2023/05/21 02:38:56;;;;;;;31.83;20.23;;;17.90;75.60;;;;;;5068252;28;20583;-60
2023/05/21 02:41:36;;;;;;;24.70;19.60;;;17.90;75.60;;;;;;5069288;28;20865;-60
2023/05/21 02:44:11;;;;;;;27.80;20.60;;;17.90;75.70;;;;;;5070134;28;20528;-60
2023/05/21 02:46:51;;;;;;;28.10;19.70;;;17.90;75.80;;;;;;5081341;28;20472;-60
2023/05/21 02:49:24;;;;;;;28.23;19.57;;;17.80;75.80;;;;;;5069362;28;20468;-60
2023/05/21 02:52:03;;;;;;;24.57;19.60;;;17.80;75.80;;;;;;5066746;28;21233;-60
2023/05/21 02:54:35;;;;;;;29.17;19.97;;;17.80;75.80;;;;;;5072085;28;20472;-59
2023/05/21 02:57:22;;;;;;;27.00;18.67;;;17.80;75.70;;;;;;5068023;28;20468;-60
2023/05/21 03:00:00;;;;;;;27.37;19.37;;;17.80;75.80;;;;;;5065603;28;20482;-60
2023/05/21 03:02:43;;;;;;;29.40;21.20;;;17.70;75.90;;;;;;5069051;28;20465;-60
2023/05/21 03:05:23;;;;;;;27.20;18.80;;;17.70;75.80;;;;;;5062928;28;20465;-60
2023/05/21 03:07:55;;;;;;;28.00;20.50;;;17.70;75.90;;;;;;5070277;28;20457;-60
2023/05/21 03:10:40;;;;;;;29.47;19.90;;;17.70;75.80;;;;;;5068859;28;20489;-60
2023/05/21 03:13:21;;;;;;;26.33;19.93;;;17.70;75.80;;;;;;5067814;28;21112;-60
2023/05/21 03:15:58;;;;;;;28.90;19.33;;;17.70;75.80;;;;;;5069187;28;20866;-60
2023/05/21 03:18:36;;;;;;;25.00;19.33;;;17.70;75.90;;;;;;5070138;28;20528;-60
2023/05/21 03:21:12;;;;;;;23.10;17.67;;;17.70;75.90;;;;;;5068670;28;20456;-60
2023/05/21 03:23:47;;;;;;;22.50;17.80;;;17.70;75.80;;;;;;5067163;28;20485;-60
2023/05/21 03:26:22;;;;;;;27.03;19.10;;;17.60;75.80;;;;;;5069061;28;20462;-60
2023/05/21 03:29:00;;;;;;;26.20;19.07;;;17.60;75.80;;;;;;5066660;28;22221;-60
2023/05/21 03:31:34;;;;;;;25.43;18.80;;;17.60;75.90;;;;;;5045618;28;20474;-60
2023/05/21 03:34:13;;;;;;;26.03;18.37;;;17.60;75.90;;;;;;5066927;28;20474;-60
2023/05/21 03:36:53;;;;;;;27.17;19.07;;;17.60;75.90;;;;;;5070596;28;20481;-60
2023/05/21 03:39:26;;;;;;;24.93;18.40;;;17.60;75.80;;;;;;5066197;28;20504;-60
2023/05/21 03:42:07;;;;;;;27.20;19.30;;;17.50;75.80;;;;;;5068412;28;20457;-60
2023/05/21 03:45:19;;;;;;;25.17;18.33;;;17.50;75.90;;;;;;5069171;28;20558;-60
2023/05/21 03:48:28;;;;;;;28.07;18.50;;;17.50;76.00;;;;;;5067488;28;20466;-60
2023/05/21 03:50:57;;;;;;;23.47;17.90;;;17.50;76.00;;;;;;5065173;28;20499;-59
2023/05/21 03:53:36;;;;;;;27.37;17.67;;;17.50;76.00;;;;;;5067820;28;20458;-60
2023/05/21 03:56:17;;;;;;;23.70;18.00;;;17.50;76.00;;;;;;5071096;28;20475;-60
2023/05/21 03:58:50;;;;;;;29.90;18.23;;;17.50;76.00;;;;;;5069176;28;20478;-60
2023/05/21 04:01:22;;;;;;;27.60;18.77;;;17.50;76.00;;;;;;5060825;28;20988;-60
2023/05/21 04:03:54;;;;;;;24.97;16.77;;;17.50;75.90;;;;;;5068201;28;20469;-59
2023/05/21 04:06:30;;;;;;;21.33;17.73;;;17.50;76.00;;;;;;5069298;28;20466;-59
2023/05/21 04:09:13;;;;;;;26.87;18.40;;;17.50;76.00;;;;;;5065909;28;20465;-60
2023/05/21 04:11:47;;;;;;;25.93;18.17;;;17.50;76.00;;;;;;5061422;28;21172;-60
2023/05/21 04:14:20;;;;;;;26.07;19.27;;;17.50;76.00;;;;;;5070191;28;20482;-59
2023/05/21 04:16:56;;;;;;;29.20;18.23;;;17.50;76.00;;;;;;5063118;28;20609;-60
2023/05/21 04:19:36;;;;;;;22.70;17.07;;;17.50;76.00;;;;;;5069713;28;20505;-60
2023/05/21 04:22:17;;;;;;;31.70;19.80;;;17.50;76.10;;;;;;5067263;28;20453;-60
2023/05/21 04:24:49;;;;;;;24.00;17.80;;;17.50;76.10;;;;;;5063129;28;20462;-60
2023/05/21 04:27:34;;;;;;;23.07;16.10;;;17.50;76.20;;;;;;5064926;28;20493;-60
2023/05/21 04:30:15;;;;;;;22.03;16.87;;;17.50;76.10;;;;;;5066080;28;20464;-59
2023/05/21 04:32:51;;;;;;;23.00;16.87;;;17.50;76.10;;;;;;5063162;28;20513;-60
2023/05/21 04:38:19;;;;;;;21.83;17.60;;;17.50;76.20;;;;;;5083119;28;20476;-60
2023/05/21 04:40:57;;;;;;;25.63;18.60;;;17.50;76.20;;;;;;5069434;28;20481;-60
2023/05/21 04:43:42;;;;;;;24.30;19.10;;;17.50;76.30;;;;;;5063793;28;20472;-59
2023/05/21 04:46:16;;;;;;;25.30;19.67;;;17.50;76.40;;;;;;5067824;28;20470;-60
2023/05/21 04:49:24;;;;;;;24.07;18.27;;;17.50;76.40;;;;;;5194996;27;20505;-61
2023/05/21 04:51:57;;;;;;;25.43;19.13;;;17.60;76.60;;;;;;5186365;27;20457;-61
2023/05/21 04:54:31;;;;;;;25.63;18.50;;;17.60;76.60;;;;;;5163409;27;20473;-58
2023/05/21 04:57:07;;;;;;;25.60;18.63;;;17.70;76.70;;;;;;5186119;27;20461;-62
2023/05/21 04:59:43;;;;;;;24.47;18.63;;;17.70;76.70;;;;;;5169757;27;20461;-61
2023/05/21 05:02:21;;;;;;;22.90;18.30;;;17.80;76.70;;;;;;5108510;27;20475;-61
2023/05/21 05:05:05;;;;;;;23.43;17.03;;;17.80;76.80;;;;;;5097405;28;20537;-61
2023/05/21 05:07:36;;;;;;;23.83;18.77;;;17.90;76.70;;;;;;5102598;27;20476;-61
2023/05/21 05:10:20;;;;;;;25.73;18.30;;;18.00;76.70;;;;;;5123277;27;20471;-61
2023/05/21 05:12:55;;;;;;;24.80;19.23;;;18.00;76.60;;;;;;5122572;27;20945;-61
2023/05/21 05:15:35;;;;;;;24.23;20.23;;;18.00;76.70;;;;;;5107509;27;20838;-64
2023/05/21 05:18:26;;;;;;;23.50;18.10;;;18.00;76.80;;;;;;5120577;27;20453;-59
2023/05/21 05:21:01;;;;;;;24.17;18.00;;;18.10;76.90;;;;;;5121882;27;20848;-60
2023/05/21 05:23:33;;;;;;;24.87;18.37;;;18.10;77.00;;;;;;5123219;27;20463;-60
2023/05/21 05:26:07;;;;;;;24.17;18.63;;;18.20;77.00;;;;;;5121082;27;20513;-59
2023/05/21 05:28:47;;;;;;;25.43;19.20;;;18.20;77.00;;;;;;5122498;28;20485;-59
2023/05/21 05:31:18;;;;;;;26.40;19.00;;;18.30;77.10;;;;;;5132832;27;20975;-59
2023/05/21 05:33:54;;;;;;;24.60;18.47;;;18.40;77.10;;;;;;5141823;27;20616;-59
2023/05/21 05:36:31;;;;;;;24.00;17.50;;;18.40;77.10;;;;;;5157853;27;20586;-59
2023/05/21 05:39:06;;;;;;;25.80;20.00;;;18.50;77.10;;;;;;5140058;27;20458;-59
2023/05/21 05:41:42;;;;;;;22.60;18.03;;;18.60;77.00;;;;;;5137360;27;20507;-62
2023/05/21 05:44:14;;;;;;;21.97;17.10;;;18.60;77.10;;;;;;5140434;27;20447;-59
2023/05/21 05:46:53;;;;;;;21.17;17.23;;;18.70;77.10;;;;;;5143118;27;20558;-62
2023/05/21 05:49:31;;;;;;;24.80;18.07;;;18.90;77.10;;;;;;5141424;27;20452;-60
2023/05/21 05:52:08;;;;;;;24.57;18.60;;;18.90;77.10;;;;;;5142201;27;20517;-60
2023/05/21 05:54:49;;;;;;;22.87;16.97;;;19.10;77.00;;;;;;5139547;27;20471;-60
2023/05/21 05:57:20;;;;;;;25.00;17.20;;;19.30;76.90;;;;;;5141570;27;20971;-60
2023/05/21 05:59:56;;;;;;;23.67;16.37;;;19.40;76.90;;;;;;5124528;27;20572;-60
2023/05/21 06:02:51;;;;;;;20.77;15.80;;;19.60;76.90;;;;;;5126364;27;20788;-60
2023/05/21 06:05:30;;;;;;;20.03;15.77;;;19.90;76.40;;;;;;5128838;27;20497;-60
2023/05/21 06:08:09;;;;;;;20.10;15.80;;;20.00;76.00;;;;;;5125126;27;20479;-60
2023/05/21 06:10:43;;;;;;;22.63;15.63;;;20.10;75.70;;;;;;5124486;27;20940;-60
2023/05/21 06:13:25;;;;;;;22.47;16.30;;;20.00;75.30;;;;;;5127757;27;20456;-60
2023/05/21 06:16:02;;;;;;;21.80;15.90;;;19.90;75.30;;;;;;5125531;27;20465;-60
2023/05/21 06:18:34;;;;;;;19.63;16.00;;;19.80;75.30;;;;;;5126202;27;20545;-60
2023/05/21 06:21:11;;;;;;;25.30;15.67;;;19.70;75.50;;;;;;5123181;27;20489;-60
2023/05/21 06:23:45;;;;;;;22.30;16.07;;;19.60;75.60;;;;;;5127594;27;20542;-60
2023/05/21 06:26:26;;;;;;;20.00;15.90;;;19.60;75.70;;;;;;5123992;27;20458;-60
2023/05/21 06:28:56;;;;;;;19.97;16.23;;;19.50;75.80;;;;;;5142783;27;20482;-60
2023/05/21 06:31:32;;;;;;;20.80;15.73;;;19.50;75.80;;;;;;5126146;27;20479;-60
2023/05/21 06:34:12;;;;;;;21.63;16.40;;;19.60;75.90;;;;;;5120204;27;20463;-60
2023/05/21 06:36:46;;;;;;;21.60;16.00;;;19.50;75.90;;;;;;5124327;27;20525;-60
2023/05/21 06:39:25;;;;;;;22.37;16.13;;;19.50;75.90;;;;;;5121543;27;20975;-60
2023/05/21 06:44:59;;;;;;;20.47;16.77;;;19.60;76.00;;;;;;5127977;27;20463;-60
2023/05/21 06:47:37;;;;;;;19.10;15.73;;;19.60;76.00;;;;;;5123189;27;20461;-60
2023/05/21 06:50:15;;;;;;;18.87;15.90;;;19.60;76.10;;;;;;5144503;27;20472;-60
2023/05/21 06:52:54;;;;;;;17.97;14.37;;;19.70;76.00;;;;;;5126148;27;20538;-61
2023/05/21 06:55:27;;;;;;;21.77;16.20;;;19.70;76.00;;;;;;5124878;27;20897;-60
2023/05/21 06:58:30;;;;;;;20.87;15.50;;;19.70;76.00;;;;;;5106691;27;20950;-60
2023/05/21 07:01:03;;;;;;;19.80;15.30;;;19.70;75.90;;;;;;5125552;27;20477;-60
2023/05/21 07:03:45;;;;;;;20.30;15.17;;;19.70;75.90;;;;;;5122232;27;20574;-60
2023/05/21 07:06:20;;;;;;;21.73;16.13;;;19.80;75.70;;;;;;5120316;27;20453;-60
2023/05/21 07:08:57;;;;;;;24.23;16.00;;;19.80;75.80;;;;;;5124560;27;20486;-60
2023/05/21 07:11:40;;;;;;;21.70;15.27;;;19.80;75.70;;;;;;5121219;27;20471;-60
2023/05/21 07:14:18;;;;;;;20.40;17.03;;;19.90;75.60;;;;;;5125967;27;20497;-60
2023/05/21 07:16:59;;;;;;;18.20;15.03;;;19.90;75.60;;;;;;5127182;27;20922;-60
2023/05/21 07:19:40;;;;;;;19.37;15.17;;;19.90;75.60;;;;;;5124928;27;20470;-60
2023/05/21 07:22:16;;;;;;;21.37;16.73;;;19.90;75.70;;;;;;5139586;27;20466;-60
2023/05/21 07:24:56;;;;;;;20.33;15.57;;;20.00;75.60;;;;;;5124067;27;20882;-59
2023/05/21 07:27:29;;;;;;;22.00;14.57;;;20.10;75.60;;;;;;5118377;27;20465;-59
2023/05/21 07:30:02;;;;;;;22.43;15.70;;;20.10;75.50;;;;;;5127127;27;20563;-59
2023/05/21 07:32:39;;;;;;;19.77;15.77;;;20.20;75.40;;;;;;5121166;27;20599;-59
2023/05/21 07:35:12;;;;;;;20.83;15.33;;;20.20;75.20;;;;;;5124377;27;20471;-60
2023/05/21 07:37:46;;;;;;;21.57;14.97;;;20.20;75.10;;;;;;5124122;27;20463;-60
2023/05/21 07:40:17;;;;;;;20.00;14.87;;;20.20;75.20;;;;;;5121017;27;20443;-59
2023/05/21 07:43:09;;;;;;;18.67;15.17;;;20.30;75.20;;;;;;5123700;27;20447;-60
2023/05/21 07:45:43;;;;;;;21.73;15.83;;;20.30;75.10;;;;;;5124433;27;20618;-60
2023/05/21 07:48:19;;;;;;;20.23;15.40;;;20.40;75.10;;;;;;5140973;27;20918;-60
2023/05/21 07:50:58;;;;;;;17.90;14.23;;;20.50;74.90;;;;;;5126325;27;20565;-60
2023/05/21 07:53:33;;;;;;;22.70;15.20;;;20.50;74.90;;;;;;5143442;27;20455;-60
2023/05/21 07:56:11;;;;;;;17.10;13.93;;;20.50;74.80;;;;;;5123772;27;20451;-60
2023/05/21 07:58:51;;;;;;;22.43;13.57;;;20.60;74.60;;;;;;5120006;27;20626;-60
2023/05/21 08:01:22;;;;;;;19.27;15.13;;;20.70;74.40;;;;;;5120221;27;20490;-60
2023/05/21 08:03:54;;;;;;;18.93;15.00;;;20.70;74.30;;;;;;5142720;27;20467;-60
2023/05/21 08:06:44;;;;;;;16.53;13.67;;;20.80;74.20;;;;;;5119977;27;20466;-60
2023/05/21 08:09:24;;;;;;;19.10;14.10;;;20.90;74.00;;;;;;5120643;27;20467;-61
2023/05/21 08:12:07;;;;;;;18.47;14.27;;;21.00;74.10;;;;;;5138054;27;20450;-60
2023/05/21 08:14:43;;;;;;;17.80;14.57;;;21.00;73.80;;;;;;5125492;27;20461;-60
2023/05/21 08:17:19;;;;;;;19.13;14.67;;;21.10;73.50;;;;;;5122838;27;20545;-60
2023/05/21 08:19:54;;;;;;;17.60;13.53;;;21.10;73.40;;;;;;5119641;27;20458;-60
2023/05/21 08:22:29;;;;;;;16.63;14.17;;;21.20;73.10;;;;;;5119675;27;20481;-60
2023/05/21 08:25:02;;;;;;;19.03;14.40;;;21.20;73.00;;;;;;5120773;27;20462;-60
2023/05/21 08:27:35;;;;;;;16.30;13.10;;;21.30;72.90;;;;;;5118026;27;20454;-60
2023/05/21 08:30:13;;;;;;;21.53;12.17;;;21.40;72.60;;;;;;5122641;27;20512;-60
2023/05/21 08:32:45;;;;;;;17.10;12.40;;;21.50;72.10;;;;;;5119559;27;20478;-60
2023/05/21 08:35:23;;;;;;;17.50;12.30;;;21.50;71.70;;;;;;5140434;27;20470;-61
2023/05/21 08:38:09;;;;;;;15.83;12.10;;;21.60;71.50;;;;;;5124432;27;20465;-61
2023/05/21 08:41:14;;;;;;;13.77;10.77;;;21.70;71.10;;;;;;5108125;27;21092;-61
2023/05/21 08:44:04;;;;;;;15.93;11.67;;;21.70;70.80;;;;;;5140635;27;20466;-61
2023/05/21 08:46:48;;;;;;;15.67;12.93;;;21.70;70.30;;;;;;5132861;27;21144;-61
2023/05/21 08:49:29;;;;;;;14.90;12.00;;;21.80;70.10;;;;;;5119790;27;20562;-61
2023/05/21 08:52:10;;;;;;;19.63;12.17;;;21.90;69.90;;;;;;5124880;27;20466;-60
2023/05/21 08:54:51;;;;;;;20.97;11.90;;;21.90;69.60;;;;;;5124662;28;20463;-61
2023/05/21 08:57:32;;;;;;;17.43;12.47;;;22.00;69.40;;;;;;5124486;27;20526;-61
2023/05/21 09:00:08;;;;;;;19.17;12.53;;;22.00;69.10;;;;;;5122436;27;20448;-60
2023/05/21 09:02:53;;;;;;;14.93;11.73;;;22.00;68.90;;;;;;5122995;27;20502;-61
2023/05/21 09:05:26;;;;;;;17.40;12.20;;;22.10;68.80;;;;;;5124403;27;20946;-61
2023/05/21 09:08:04;;;;;;;14.47;11.50;;;22.20;68.60;;;;;;5126508;27;20700;-61
2023/05/21 09:10:55;;;;;;;16.37;12.70;;;22.20;68.30;;;;;;5126379;27;20516;-61
2023/05/21 09:13:46;;;;;;;15.67;11.93;;;22.30;68.10;;;;;;5117893;27;20555;-60
2023/05/21 09:16:28;;;;;;;15.67;11.33;;;22.30;67.70;;;;;;5121030;27;20451;-60
2023/05/21 09:19:06;;;;;;;16.37;11.50;;;22.40;67.70;;;;;;5123142;28;20464;-61
2023/05/21 09:21:47;;;;;;;15.70;11.80;;;22.50;67.30;;;;;;5124826;27;20484;-61
2023/05/21 09:24:27;;;;;;;14.23;11.30;;;22.50;67.20;;;;;;5126337;28;20856;-61
2023/05/21 09:27:06;;;;;;;14.90;11.77;;;22.60;67.00;;;;;;5141721;27;20963;-61
2023/05/21 09:29:43;;;;;;;17.50;12.80;;;22.70;66.80;;;;;;5123656;27;20471;-61
2023/05/21 09:32:28;;;;;;;20.57;12.07;;;22.70;66.70;;;;;;5135628;27;20475;-61
2023/05/21 09:35:10;;;;;;;16.97;11.83;;;22.80;66.60;;;;;;5124454;27;20454;-61
2023/05/21 09:37:49;;;;;;;16.43;12.07;;;22.90;66.30;;;;;;5124382;27;20570;-62
2023/05/21 09:40:26;;;;;;;14.97;11.80;;;23.00;66.30;;;;;;5119705;27;20454;-61
2023/05/21 09:43:01;;;;;;;17.77;11.90;;;23.00;66.00;;;;;;5124329;27;20472;-61
2023/05/21 09:45:37;;;;;;;23.37;12.50;;;23.10;66.00;;;;;;5119548;27;20446;-61
2023/05/21 09:48:11;;;;;;;17.03;12.03;;;23.10;65.70;;;;;;5123983;27;20987;-61
2023/05/21 09:50:49;;;;;;;15.70;12.00;;;23.20;65.60;;;;;;5141593;27;21034;-61
2023/05/21 09:53:25;;;;;;;17.27;12.10;;;23.20;65.50;;;;;;5124745;27;21266;-59
2023/05/21 09:56:02;;;;;;;18.60;12.00;;;23.30;65.40;;;;;;5127175;27;20464;-61
2023/05/21 09:58:35;;;;;;;23.70;12.33;;;23.40;65.30;;;;;;5119343;27;20954;-60
2023/05/21 10:01:08;;;;;;;15.90;11.57;;;23.40;65.00;;;;;;5125900;27;20485;-60
2023/05/21 10:03:45;;;;;;;15.73;11.90;;;23.50;64.90;;;;;;5121679;27;20481;-60
2023/05/21 10:06:20;;;;;;;16.07;11.20;;;23.50;64.90;;;;;;5127542;27;20477;-61
2023/05/21 10:08:53;;;;;;;16.33;12.17;;;23.60;64.50;;;;;;5127902;27;20455;-60
2023/05/21 10:11:26;;;;;;;18.90;11.30;;;23.60;64.30;;;;;;5123888;27;20474;-60
2023/05/21 10:14:06;;;;;;;14.43;11.80;;;23.70;64.10;;;;;;5125434;27;20459;-60
2023/05/21 10:16:45;;;;;;;15.33;11.17;;;23.70;63.90;;;;;;5125315;27;20467;-60
2023/05/21 10:19:23;;;;;;;16.40;12.00;;;23.80;63.80;;;;;;5124980;27;20464;-60
2023/05/21 10:22:15;;;;;;;14.27;10.80;;;23.80;63.80;;;;;;5129687;27;20458;-60
2023/05/21 10:24:52;;;;;;;15.10;11.50;;;23.90;63.40;;;;;;5127012;27;20455;-60
2023/05/21 10:30:10;;;;;;;12.90;10.50;;;24.10;63.00;;;;;;5126535;27;20468;-61
2023/05/21 10:32:53;;;;;;;14.17;10.47;;;24.10;62.80;;;;;;5126735;27;20463;-60
2023/05/21 10:35:25;;;;;;;14.70;10.87;;;24.10;62.50;;;;;;5123250;27;20455;-60
2023/05/21 10:38:03;;;;;;;17.20;11.40;;;24.20;62.60;;;;;;5124995;27;20867;-60
2023/05/21 10:40:34;;;;;;;13.33;11.07;;;24.20;62.40;;;;;;5126164;27;21039;-60
2023/05/21 10:43:41;;;;;;;13.90;11.17;;;24.20;62.30;;;;;;5111593;27;20468;-60
2023/05/21 10:50:20;;;;;;;13.70;10.60;;;24.30;61.90;;;;;;5120915;27;20470;-61
2023/05/21 10:53:08;;;;;;;13.00;10.07;;;24.30;61.70;;;;;;5102307;27;20559;-60
2023/05/21 10:55:54;;;;;;;13.70;10.83;;;24.30;61.80;;;;;;5123520;27;20451;-61
2023/05/21 10:59:10;;;;;;;15.90;10.30;;;24.40;61.50;;;;;;5113405;27;21179;-60
2023/05/21 11:01:42;;;;;;;15.30;11.03;;;24.40;61.10;;;;;;5117683;27;20594;-60
2023/05/21 11:04:24;;;;;;;14.13;9.93;;;24.40;61.00;;;;;;5117316;27;20467;-61
2023/05/21 11:07:05;;;;;;;15.27;10.57;;;24.40;60.80;;;;;;5111032;27;20450;-61
2023/05/21 11:09:39;;;;;;;12.70;10.50;;;24.40;60.70;;;;;;5107900;27;20486;-61
2023/05/21 11:12:11;;;;;;;14.63;10.50;;;24.50;60.70;;;;;;5108746;27;20902;-60
2023/05/21 11:14:59;;;;;;;13.47;10.60;;;24.50;60.70;;;;;;5118026;27;20801;-61
2023/05/21 11:17:40;;;;;;;14.53;10.63;;;24.50;60.50;;;;;;5115489;27;20493;-62
2023/05/21 11:20:21;;;;;;;13.60;10.57;;;24.60;60.40;;;;;;5114705;27;21345;-61
2023/05/21 11:22:58;;;;;;;13.73;11.60;;;24.70;60.50;;;;;;5110406;27;20452;-61
2023/05/21 11:25:45;;;;;;;14.73;11.93;;;24.70;60.60;;;;;;5114810;27;20461;-61
2023/05/21 11:28:42;;;;;;;15.43;11.30;;;24.70;60.60;;;;;;5117124;27;20489;-61
2023/05/21 11:31:33;;;;;;;13.73;10.60;;;24.70;60.50;;;;;;5114174;27;20549;-61
2023/05/21 11:34:15;;;;;;;14.87;10.87;;;24.80;60.50;;;;;;5110178;27;20474;-61
2023/05/21 11:37:39;;;;;;;13.17;10.70;;;24.80;60.50;;;;;;5110919;27;20995;-60
2023/05/21 11:43:41;;;;;;;17.23;11.20;;;24.90;60.10;;;;;;5111651;27;20481;-61
2023/05/21 11:49:08;;;;;;;15.33;11.50;;;25.00;59.60;;;;;;5108144;27;20468;-61
2023/05/21 11:51:58;;;;;;;13.37;10.70;;;25.10;59.30;;;;;;5114873;27;20541;-60
2023/05/21 11:57:34;;;;;;;19.50;10.20;;;25.20;59.10;;;;;;5106581;27;20443;-61
2023/05/21 12:00:15;;;;;;;15.50;11.20;;;25.20;59.10;;;;;;5116274;27;21047;-61
2023/05/21 12:03:18;;;;;;;13.73;10.23;;;25.30;58.90;;;;;;5123725;27;20477;-61
2023/05/21 12:06:08;;;;;;;13.23;10.80;;;25.30;58.90;;;;;;5129439;27;20459;-61
2023/05/21 12:11:54;;;;;;;14.17;10.30;;;25.30;58.70;;;;;;5127171;27;20471;-62
2023/05/21 12:14:35;;;;;;;12.33;10.37;;;25.40;58.50;;;;;;5125129;27;20463;-61
2023/05/21 12:17:57;;;;;;;14.60;9.70;;;25.40;58.40;;;;;;5122111;27;21065;-61
2023/05/21 12:20:44;;;;;;;14.47;9.90;;;25.50;58.20;;;;;;5120324;27;20537;-62
2023/05/21 12:23:44;;;;;;;14.53;10.73;;;25.60;58.10;;;;;;5123110;27;20451;-61
2023/05/21 12:26:27;;;;;;;11.60;9.00;;;25.70;58.00;;;;;;5127456;27;20538;-61
2023/05/21 12:29:01;;;;;;;13.03;10.30;;;25.80;57.80;;;;;;5126852;27;20439;-61
2023/05/21 12:31:31;;;;;;;15.03;10.80;;;25.80;57.70;;;;;;5122494;27;20475;-61
2023/05/21 12:34:55;;;;;;;15.63;10.57;;;25.80;57.70;;;;;;5125431;27;20508;-62
2023/05/21 12:37:32;;;;;;;16.27;10.67;;;25.90;57.50;;;;;;5123539;27;20490;-62
2023/05/21 12:40:19;;;;;;;13.03;10.07;;;25.90;57.60;;;;;;5125729;27;20450;-61
2023/05/21 12:43:10;;;;;;;13.13;9.27;;;25.90;57.40;;;;;;5087878;28;20463;-62
2023/05/21 12:45:48;;;;;;;20.10;10.23;;;26.00;57.50;;;;;;5122314;27;20918;-61
2023/05/21 12:48:45;;;;;;;13.87;10.50;;;26.00;57.10;;;;;;5122241;28;20746;-62
2023/05/21 12:51:20;;;;;;;12.80;9.60;;;26.00;57.00;;;;;;5123373;28;20478;-62
2023/05/21 12:54:16;;;;;;;12.90;10.00;;;26.10;56.70;;;;;;5125215;28;20786;-61
2023/05/21 12:57:10;;;;;;;12.23;9.23;;;26.00;56.20;;;;;;5127857;28;20956;-61
2023/05/21 12:59:59;;;;;;;15.80;10.03;;;26.10;56.30;;;;;;5123927;28;20466;-62
2023/05/21 13:02:36;;;;;;;17.03;10.83;;;26.10;56.30;;;;;;5118522;28;21285;-61
2023/05/21 13:05:18;;;;;;;15.40;9.80;;;26.10;56.20;;;;;;5122154;28;20520;-61
2023/05/21 13:07:53;;;;;;;12.93;10.07;;;26.10;56.30;;;;;;5123266;27;20458;-62
2023/05/21 13:10:36;;;;;;;13.83;10.10;;;26.10;56.10;;;;;;5128877;27;20914;-61
2023/05/21 13:13:13;;;;;;;20.33;8.97;;;26.20;55.80;;;;;;5131139;27;20479;-62
2023/05/21 13:16:01;;;;;;;13.17;10.17;;;26.10;55.70;;;;;;5125267;27;20452;-61
2023/05/21 13:18:46;;;;;;;13.53;9.40;;;26.20;55.60;;;;;;5130229;27;20470;-61
2023/05/21 13:21:27;;;;;;;14.80;9.93;;;26.20;55.70;;;;;;5129145;27;20853;-62
2023/05/21 13:24:12;;;;;;;16.70;10.80;;;26.20;55.80;;;;;;5129564;27;20457;-61
2023/05/21 13:26:47;;;;;;;14.60;9.87;;;26.20;55.70;;;;;;5125358;27;20501;-61
2023/05/21 13:29:20;;;;;;;15.87;10.00;;;26.20;55.70;;;;;;5128479;27;20458;-62
2023/05/21 13:31:59;;;;;;;13.10;9.70;;;26.20;55.80;;;;;;5122056;27;20506;-62
2023/05/21 13:34:39;;;;;;;14.20;10.00;;;26.20;55.80;;;;;;5118476;27;20923;-62
2023/05/21 13:37:19;;;;;;;13.47;9.63;;;26.30;55.70;;;;;;5122189;27;20832;-61
2023/05/21 13:40:10;;;;;;;13.00;10.13;;;26.30;55.70;;;;;;5120101;27;20465;-62
2023/05/21 13:42:57;;;;;;;11.83;9.60;;;26.40;55.70;;;;;;5117794;27;20435;-62
2023/05/21 13:45:31;;;;;;;11.60;9.37;;;26.40;55.60;;;;;;5118527;27;20448;-62
2023/05/21 13:48:11;;;;;;;13.10;9.90;;;26.40;55.40;;;;;;5114205;27;20445;-62
2023/05/21 13:50:46;;;;;;;12.50;9.83;;;26.40;55.40;;;;;;5116106;27;20447;-61
2023/05/21 13:53:21;;;;;;;12.13;8.57;;;26.40;55.30;;;;;;5119694;27;20916;-62
2023/05/21 13:56:00;;;;;;;12.30;9.10;;;26.40;55.10;;;;;;5117861;27;20447;-61